createdAt,value
2019-05-23T00:01:57.771Z,92.00
2019-05-23T00:04:59.155Z,91.40
2019-05-23T00:07:46.780Z,91.00
2019-05-23T00:10:36.356Z,91.10
2019-05-23T00:13:25.194Z,91.20
2019-05-23T00:15:56.437Z,91.40
2019-05-23T00:18:27.284Z,91.50
2019-05-23T00:20:59.220Z,91.70
2019-05-23T00:23:28.949Z,91.50
2019-05-23T00:25:59.506Z,91.40
2019-05-23T00:28:30.754Z,91.20
2019-05-23T00:31:01.993Z,91.40
2019-05-23T00:33:33.239Z,91.40
2019-05-23T00:36:03.359Z,91.60
2019-05-23T00:38:33.080Z,91.80
2019-05-23T00:41:04.007Z,91.70
2019-05-23T00:43:34.155Z,91.10
2019-05-23T00:46:04.071Z,91.60
2019-05-23T00:48:34.808Z,91.70
2019-05-23T00:51:06.085Z,91.70
2019-05-23T00:53:37.330Z,91.50
2019-05-23T00:56:08.907Z,91.60
2019-05-23T00:58:39.614Z,91.70
2019-05-23T01:01:09.297Z,91.80
2019-05-23T01:03:40.738Z,91.90
2019-05-23T01:06:10.789Z,92.30
2019-05-23T01:08:40.479Z,92.30
2019-05-23T01:11:11.029Z,92.20
2019-05-23T01:13:41.635Z,92.10
2019-05-23T01:16:12.164Z,91.70
2019-05-23T01:18:41.900Z,91.30
2019-05-23T01:21:17.322Z,91.20
2019-05-23T01:23:55.044Z,91.10
2019-05-23T01:26:25.920Z,90.70
2019-05-23T01:28:55.595Z,91.20
2019-05-23T01:31:27.219Z,91.70
2019-05-23T01:33:57.057Z,91.90
2019-05-23T01:36:28.598Z,91.90
2019-05-23T01:38:59.947Z,91.80
2019-05-23T01:41:30.179Z,92.10
2019-05-23T01:44:00.405Z,91.60
2019-05-23T01:46:30.600Z,91.60
2019-05-23T01:49:00.307Z,92.00
2019-05-23T01:51:30.865Z,92.10
2019-05-23T01:54:01.263Z,91.90
2019-05-23T01:56:33.161Z,91.90
2019-05-23T01:59:03.040Z,92.20
2019-05-23T02:01:32.780Z,92.40
2019-05-23T02:04:02.489Z,92.40
2019-05-23T02:06:32.712Z,92.40
2019-05-23T02:09:04.766Z,92.00
2019-05-23T02:11:34.559Z,91.90
2019-05-23T02:14:04.912Z,92.10
2019-05-23T02:16:34.603Z,92.20
2019-05-23T02:19:04.331Z,92.40
2019-05-23T02:21:34.556Z,92.40
2019-05-23T02:24:05.492Z,92.30
2019-05-23T02:26:35.818Z,92.30
2019-05-23T02:29:07.035Z,92.30
2019-05-23T02:31:36.773Z,92.40
2019-05-23T02:34:08.022Z,92.40
2019-05-23T02:36:37.831Z,92.30
2019-05-23T02:39:15.350Z,92.20
2019-05-23T02:41:47.714Z,92.30
2019-05-23T02:44:18.943Z,92.10
2019-05-23T02:46:54.995Z,92.00
2019-05-23T02:49:27.800Z,91.90
2019-05-23T02:51:57.494Z,91.90
2019-05-23T02:54:29.354Z,91.70
2019-05-23T02:57:01.348Z,91.80
2019-05-23T02:59:47.926Z,91.70
2019-05-23T03:02:47.882Z,91.00
2019-05-23T03:05:24.309Z,91.10
2019-05-23T03:07:53.919Z,90.00
2019-05-23T03:10:24.347Z,90.60
2019-05-23T03:12:54.379Z,90.00
2019-05-23T03:15:25.098Z,90.00
2019-05-23T03:17:55.580Z,90.30
2019-05-23T03:20:27.181Z,90.40
2019-05-23T03:23:01.190Z,90.10
2019-05-23T03:25:39.816Z,90.50
2019-05-23T03:28:10.141Z,90.90
2019-05-23T03:30:41.460Z,91.00
2019-05-23T03:33:12.496Z,91.40
2019-05-23T03:35:46.613Z,91.50
2019-05-23T03:38:16.758Z,91.20
2019-05-23T03:40:46.775Z,91.30
2019-05-23T03:43:17.001Z,91.50
2019-05-23T03:45:51.212Z,91.70
2019-05-23T03:48:21.740Z,91.70
2019-05-23T03:50:52.457Z,91.40
2019-05-23T03:53:23.900Z,91.50
2019-05-23T03:55:54.016Z,91.50
2019-05-23T03:58:23.759Z,91.40
2019-05-23T04:00:58.171Z,91.40
2019-05-23T04:03:27.886Z,91.50
2019-05-23T04:05:57.597Z,92.10
2019-05-23T04:08:28.409Z,92.40
2019-05-23T04:10:59.962Z,92.50
2019-05-23T04:13:31.706Z,92.50
2019-05-23T04:16:01.863Z,92.30
2019-05-23T04:18:32.085Z,92.40
2019-05-23T04:21:01.796Z,92.30
2019-05-23T04:23:32.121Z,92.30
2019-05-23T04:26:02.112Z,92.30
2019-05-23T04:28:31.848Z,92.10
2019-05-23T04:31:02.759Z,91.80
2019-05-23T04:33:32.496Z,91.50
2019-05-23T04:36:02.620Z,91.50
2019-05-23T04:38:35.765Z,91.50
2019-05-23T04:41:04.082Z,91.10
2019-05-23T04:43:33.795Z,91.10
2019-05-23T04:46:03.504Z,91.20
2019-05-23T04:48:33.497Z,91.20
2019-05-23T04:51:03.539Z,91.40
2019-05-23T04:53:33.152Z,91.30
2019-05-23T04:56:05.098Z,91.20
2019-05-23T04:58:34.825Z,90.90
2019-05-23T05:01:05.865Z,91.10
2019-05-23T05:03:35.573Z,90.70
2019-05-23T05:06:05.282Z,88.10
2019-05-23T05:08:34.992Z,86.40
2019-05-23T05:11:05.625Z,86.60
2019-05-23T05:13:35.334Z,84.40
2019-05-23T05:16:05.047Z,82.00
2019-05-23T05:18:35.167Z,82.90
2019-05-23T05:21:04.854Z,84.50
2019-05-23T05:23:34.583Z,84.90
2019-05-23T05:26:04.396Z,86.00
2019-05-23T05:28:34.106Z,85.10
2019-05-23T05:31:03.817Z,85.40
2019-05-23T05:33:33.733Z,86.00
2019-05-23T05:36:04.400Z,86.30
2019-05-23T05:38:35.675Z,86.40
2019-05-23T05:41:05.525Z,86.50
2019-05-23T05:43:35.632Z,85.40
2019-05-23T05:46:05.558Z,80.90
2019-05-23T05:48:35.270Z,77.90
2019-05-23T05:51:05.567Z,75.40
2019-05-23T05:53:36.790Z,74.50
2019-05-23T05:56:06.562Z,74.50
2019-05-23T05:58:36.261Z,73.80
2019-05-23T06:01:09.080Z,73.20
2019-05-23T06:03:39.195Z,73.30
2019-05-23T06:06:19.639Z,73.40
2019-05-23T06:08:50.869Z,74.50
2019-05-23T06:11:20.580Z,72.80
2019-05-23T06:13:50.293Z,70.30
2019-05-23T06:16:20.000Z,71.70
2019-05-23T06:18:51.546Z,73.50
2019-05-23T06:21:22.775Z,73.40
2019-05-23T06:23:52.615Z,72.60
2019-05-23T06:26:22.303Z,72.00
2019-05-23T06:28:53.928Z,70.70
2019-05-23T06:31:24.296Z,69.10
2019-05-23T06:33:54.319Z,69.90
2019-05-23T06:36:25.489Z,67.20
2019-05-23T06:38:56.505Z,67.90
2019-05-23T06:41:27.136Z,67.50
2019-05-23T06:43:57.055Z,66.80
2019-05-23T06:46:26.839Z,69.10
2019-05-23T06:48:56.553Z,70.00
2019-05-23T06:51:26.676Z,70.80
2019-05-23T06:53:57.298Z,69.60
2019-05-23T06:56:27.649Z,66.70
2019-05-23T06:58:57.361Z,66.20
2019-05-23T07:01:27.075Z,68.20
2019-05-23T07:03:56.945Z,66.80
2019-05-23T07:06:26.900Z,66.20
2019-05-23T07:08:56.713Z,65.60
2019-05-23T07:11:26.809Z,67.40
2019-05-23T07:13:56.516Z,67.00
2019-05-23T07:16:27.189Z,63.70
2019-05-23T07:18:59.712Z,67.90
2019-05-23T07:21:31.580Z,69.90
2019-05-23T07:24:01.322Z,69.50
2019-05-23T07:26:31.723Z,66.10
2019-05-23T07:29:01.459Z,66.20
2019-05-23T07:31:31.543Z,66.80
2019-05-23T07:34:02.629Z,64.70
2019-05-23T07:36:32.534Z,65.40
2019-05-23T07:39:02.263Z,63.80
2019-05-23T07:41:33.389Z,60.70
2019-05-23T07:44:03.125Z,59.70
2019-05-23T07:46:32.912Z,61.40
2019-05-23T07:49:03.211Z,62.00
2019-05-23T07:51:32.919Z,59.80
2019-05-23T07:54:06.842Z,60.40
2019-05-23T07:56:42.042Z,58.00
2019-05-23T07:59:11.906Z,55.10
2019-05-23T08:01:43.866Z,53.70
2019-05-23T08:04:21.319Z,55.60
2019-05-23T08:06:48.791Z,54.20
2019-05-23T08:09:18.127Z,59.60
2019-05-23T08:11:47.830Z,59.40
2019-05-23T08:14:17.540Z,57.90
2019-05-23T08:16:47.252Z,57.80
2019-05-23T08:19:19.695Z,56.70
2019-05-23T08:21:48.717Z,53.20
2019-05-23T08:24:19.890Z,55.90
2019-05-23T08:26:49.674Z,56.40
2019-05-23T08:29:25.871Z,56.60
2019-05-23T08:31:50.634Z,57.80
2019-05-23T08:34:39.589Z,57.30
2019-05-23T08:36:51.868Z,57.60
2019-05-23T08:39:23.147Z,56.40
2019-05-23T08:41:52.771Z,56.40
2019-05-23T08:44:23.174Z,58.70
2019-05-23T08:46:52.987Z,59.30
2019-05-23T08:49:23.138Z,61.00
2019-05-23T08:51:52.727Z,60.80
2019-05-23T08:54:22.435Z,59.10
2019-05-23T08:56:52.134Z,61.20
2019-05-23T08:59:22.331Z,61.90
2019-05-23T09:01:52.085Z,57.50
2019-05-23T09:04:22.878Z,60.80
2019-05-23T09:06:52.796Z,57.80
2019-05-23T09:09:29.836Z,55.10
2019-05-23T09:11:53.876Z,54.30
2019-05-23T09:14:23.975Z,51.90
2019-05-23T09:16:53.711Z,51.30
2019-05-23T09:19:23.415Z,53.90
2019-05-23T09:21:57.577Z,51.20
2019-05-23T09:24:29.700Z,54.60
2019-05-23T09:26:59.281Z,56.40
2019-05-23T09:29:30.719Z,55.70
2019-05-23T09:32:01.441Z,59.10
2019-05-23T09:34:31.199Z,55.90
2019-05-23T09:37:00.912Z,55.70
2019-05-23T09:39:30.619Z,54.40
2019-05-23T09:42:00.331Z,53.60
2019-05-23T09:44:30.045Z,54.40
2019-05-23T09:46:59.751Z,56.00
2019-05-23T09:49:30.806Z,56.00
2019-05-23T09:52:01.447Z,53.80
2019-05-23T09:54:31.648Z,55.40
2019-05-23T09:57:01.356Z,52.80
2019-05-23T09:59:31.173Z,54.20
2019-05-23T10:02:01.452Z,54.50
2019-05-23T10:04:31.182Z,51.90
2019-05-23T10:07:00.912Z,51.70
2019-05-23T10:09:30.712Z,53.50
2019-05-23T10:12:00.743Z,49.00
2019-05-23T10:14:32.200Z,47.70
2019-05-23T10:17:02.080Z,48.70
2019-05-23T10:19:32.228Z,47.40
2019-05-23T10:22:03.350Z,50.10
2019-05-23T10:24:33.053Z,49.90
2019-05-23T10:27:02.798Z,50.00
2019-05-23T10:29:32.507Z,49.90
2019-05-23T10:32:02.212Z,50.70
2019-05-23T10:34:32.927Z,51.30
2019-05-23T10:37:04.003Z,53.40
2019-05-23T10:39:34.798Z,50.40
2019-05-23T10:42:04.535Z,52.30
2019-05-23T10:44:34.220Z,53.50
2019-05-23T10:47:03.955Z,50.20
2019-05-23T10:49:33.562Z,47.90
2019-05-23T10:52:03.247Z,46.80
2019-05-23T10:54:32.879Z,44.50
2019-05-23T10:57:02.499Z,45.70
2019-05-23T10:59:32.199Z,42.50
2019-05-23T11:02:02.808Z,41.00
2019-05-23T11:04:32.511Z,42.30
2019-05-23T11:07:02.766Z,41.40
2019-05-23T11:09:37.974Z,38.00
2019-05-23T11:12:04.494Z,34.80
2019-05-23T11:14:34.452Z,38.00
2019-05-23T11:17:05.494Z,40.70
2019-05-23T11:19:35.109Z,33.60
2019-05-23T11:22:06.396Z,32.50
2019-05-23T11:24:36.062Z,32.70
2019-05-23T11:27:05.758Z,32.90
2019-05-23T11:29:35.352Z,29.70
2019-05-23T11:32:06.564Z,29.60
2019-05-23T11:34:36.304Z,28.70
2019-05-23T11:37:06.041Z,30.30
2019-05-23T11:39:42.169Z,31.70
2019-05-23T11:42:07.714Z,32.90
2019-05-23T11:44:37.507Z,29.90
2019-05-23T11:47:10.318Z,30.80
2019-05-23T11:49:43.435Z,31.40
2019-05-23T11:52:14.249Z,33.70
2019-05-23T11:54:46.807Z,35.80
2019-05-23T11:57:16.628Z,35.60
2019-05-23T11:59:47.333Z,36.30
2019-05-23T12:02:33.864Z,35.60
2019-05-23T12:05:05.318Z,35.90
2019-05-23T12:07:36.308Z,38.10
2019-05-23T12:10:06.355Z,35.60
2019-05-23T12:12:36.083Z,41.80
2019-05-23T12:15:10.385Z,40.50
2019-05-23T12:17:40.317Z,41.10
2019-05-23T12:20:10.047Z,43.30
2019-05-23T12:22:40.210Z,39.80
2019-05-23T12:25:22.113Z,42.80
2019-05-23T12:27:42.103Z,39.80
2019-05-23T12:30:16.016Z,40.00
2019-05-23T12:32:46.204Z,40.20
2019-05-23T12:35:16.071Z,40.70
2019-05-23T12:37:47.480Z,39.20
2019-05-23T12:40:17.438Z,39.40
2019-05-23T12:42:47.146Z,42.70
2019-05-23T12:45:17.326Z,42.30
2019-05-23T12:48:04.996Z,39.40
2019-05-23T12:50:42.182Z,39.50
2019-05-23T12:53:13.441Z,42.80
2019-05-23T12:55:43.211Z,44.50
2019-05-23T12:58:12.949Z,44.80
2019-05-23T13:00:44.199Z,41.20
2019-05-23T13:03:15.443Z,41.70
2019-05-23T13:05:45.024Z,41.10
2019-05-23T13:08:14.769Z,39.90
2019-05-23T13:10:45.809Z,43.80
2019-05-23T13:13:15.640Z,44.00
2019-05-23T13:15:45.548Z,42.60
2019-05-23T13:18:16.282Z,41.90
2019-05-23T13:20:49.397Z,42.20
2019-05-23T13:23:21.090Z,39.30
2019-05-23T13:25:50.732Z,40.70
2019-05-23T13:28:20.405Z,40.60
2019-05-23T13:30:50.141Z,41.50
2019-05-23T13:33:19.849Z,38.90
2019-05-23T13:35:49.469Z,39.00
2019-05-23T13:38:19.169Z,34.20
2019-05-23T13:40:49.837Z,32.10
2019-05-23T13:43:19.485Z,32.40
2019-05-23T13:45:50.905Z,30.90
2019-05-23T13:48:20.522Z,33.70
2019-05-23T13:50:50.457Z,33.40
2019-05-23T13:53:20.294Z,32.50
2019-05-23T13:55:50.004Z,35.40
2019-05-23T13:58:19.718Z,34.20
2019-05-23T14:00:50.554Z,35.00
2019-05-23T14:03:21.976Z,39.00
2019-05-23T14:05:51.690Z,32.80
2019-05-23T14:08:21.500Z,36.10
2019-05-23T14:10:51.338Z,34.60
2019-05-23T14:13:21.659Z,32.00
2019-05-23T14:15:52.909Z,30.70
2019-05-23T14:18:24.156Z,29.30
2019-05-23T14:20:53.837Z,29.20
2019-05-23T14:23:35.763Z,26.10
2019-05-23T14:26:04.647Z,24.60
2019-05-23T14:28:34.237Z,25.20
2019-05-23T14:31:05.507Z,23.70
2019-05-23T14:33:36.750Z,25.00
2019-05-23T14:36:20.260Z,26.20
2019-05-23T14:38:51.504Z,27.50
2019-05-23T14:41:21.217Z,21.80
2019-05-23T14:43:52.590Z,21.70
2019-05-23T14:46:22.192Z,20.60
2019-05-23T14:48:57.596Z,20.50
2019-05-23T14:51:31.348Z,22.00
2019-05-23T14:54:19.079Z,20.00
2019-05-23T14:56:48.788Z,21.70
2019-05-23T14:59:18.575Z,23.90
2019-05-23T15:01:48.617Z,23.40
2019-05-23T15:04:18.352Z,21.00
2019-05-23T15:06:48.551Z,26.40
2019-05-23T15:09:21.254Z,22.80
2019-05-23T15:11:49.097Z,21.30
2019-05-23T15:14:18.809Z,21.60
2019-05-23T15:16:48.517Z,22.30
2019-05-23T15:19:38.758Z,23.90
2019-05-23T15:21:49.578Z,23.00
2019-05-23T15:24:19.365Z,23.50
2019-05-23T15:26:49.000Z,25.40
2019-05-23T15:29:18.687Z,27.70
2019-05-23T15:32:01.581Z,27.60
2019-05-23T15:34:20.710Z,30.90
2019-05-23T15:36:50.399Z,33.90
2019-05-23T15:39:20.415Z,32.80
2019-05-23T15:41:52.053Z,32.70
2019-05-23T15:44:27.201Z,35.00
2019-05-23T15:46:52.722Z,35.70
2019-05-23T15:49:24.508Z,37.10
2019-05-23T15:52:05.121Z,37.10
2019-05-23T15:54:42.435Z,36.70
2019-05-23T15:57:25.527Z,36.30
2019-05-23T15:59:59.572Z,35.20
2019-05-23T16:02:30.817Z,34.60
2019-05-23T16:05:00.620Z,37.20
2019-05-23T16:07:30.644Z,36.10
2019-05-23T16:10:00.357Z,35.90
2019-05-23T16:12:30.066Z,33.40
2019-05-23T16:14:59.749Z,32.40
2019-05-23T16:17:30.532Z,31.90
2019-05-23T16:20:00.219Z,32.30
2019-05-23T16:22:31.097Z,30.10
2019-05-23T16:25:00.971Z,31.30
2019-05-23T16:27:31.607Z,31.20
2019-05-23T16:30:01.317Z,32.20
2019-05-23T16:32:32.377Z,32.50
2019-05-23T16:35:03.251Z,34.40
2019-05-23T16:37:32.871Z,35.10
2019-05-23T16:40:03.584Z,36.30
2019-05-23T16:42:33.215Z,36.70
2019-05-23T16:45:02.923Z,37.60
2019-05-23T16:47:32.668Z,36.80
2019-05-23T16:50:03.346Z,39.10
2019-05-23T16:52:32.980Z,40.70
2019-05-23T16:55:04.227Z,41.80
2019-05-23T16:57:35.498Z,40.30
2019-05-23T17:00:14.965Z,41.00
2019-05-23T17:02:49.328Z,39.90
2019-05-23T17:05:21.630Z,38.80
2019-05-23T17:07:55.323Z,40.10
2019-05-23T17:10:27.535Z,39.20
2019-05-23T17:13:04.581Z,41.20
2019-05-23T17:15:41.767Z,40.30
2019-05-23T17:18:15.753Z,41.10
2019-05-23T17:20:59.075Z,41.90
2019-05-23T17:23:46.931Z,42.40
2019-05-23T17:26:21.277Z,42.30
2019-05-23T17:28:52.646Z,42.40
2019-05-23T17:31:23.823Z,43.50
2019-05-23T17:33:53.543Z,44.10
2019-05-23T17:36:23.575Z,43.80
2019-05-23T17:38:53.189Z,43.10
2019-05-23T17:41:23.117Z,46.00
2019-05-23T17:43:53.780Z,46.20
2019-05-23T17:46:24.510Z,46.90
2019-05-23T17:48:54.178Z,46.20
2019-05-23T17:51:24.404Z,45.80
2019-05-23T17:53:54.111Z,45.70
2019-05-23T17:56:24.540Z,44.80
2019-05-23T17:58:54.248Z,45.70
2019-05-23T18:01:24.756Z,47.30
2019-05-23T18:03:54.459Z,48.80
2019-05-23T18:06:24.197Z,49.70
2019-05-23T18:08:55.628Z,53.50
2019-05-23T18:11:26.350Z,52.00
2019-05-23T18:13:56.604Z,51.40
2019-05-23T18:16:28.711Z,50.80
2019-05-23T18:18:58.356Z,49.90
2019-05-23T18:21:28.175Z,49.00
2019-05-23T18:23:58.877Z,50.10
2019-05-23T18:26:28.550Z,51.50
2019-05-23T18:28:58.343Z,52.00
2019-05-23T18:31:29.504Z,51.90
2019-05-23T18:33:59.584Z,57.40
2019-05-23T18:36:29.425Z,55.20
2019-05-23T18:38:59.134Z,56.40
2019-05-23T18:41:30.618Z,55.80
2019-05-23T18:44:00.678Z,57.20
2019-05-23T18:46:31.920Z,57.80
2019-05-23T18:49:02.070Z,57.20
2019-05-23T18:51:32.395Z,58.20
2019-05-23T18:54:03.394Z,61.00
2019-05-23T18:56:52.601Z,57.40
2019-05-23T18:59:22.486Z,59.20
2019-05-23T19:01:52.335Z,60.50
2019-05-23T19:04:23.121Z,61.10
2019-05-23T19:06:53.080Z,61.60
2019-05-23T19:09:22.893Z,60.20
2019-05-23T19:11:52.471Z,60.40
2019-05-23T19:14:22.211Z,60.90
2019-05-23T19:16:52.433Z,65.00
2019-05-23T19:19:22.039Z,63.30
2019-05-23T19:21:51.753Z,64.60
2019-05-23T19:24:21.461Z,66.20
2019-05-23T19:26:51.559Z,66.50
2019-05-23T19:29:23.132Z,66.40
2019-05-23T19:31:53.124Z,65.90
2019-05-23T19:34:22.863Z,66.20
2019-05-23T19:36:52.880Z,67.10
2019-05-23T19:39:24.022Z,67.30
2019-05-23T19:41:53.733Z,67.60
2019-05-23T19:44:24.428Z,66.80
2019-05-23T19:46:54.055Z,65.50
2019-05-23T19:49:26.998Z,64.60
2019-05-23T19:51:55.339Z,63.40
2019-05-23T19:54:25.457Z,67.00
2019-05-23T19:56:55.140Z,65.60
2019-05-23T19:59:24.769Z,64.50
2019-05-23T20:02:05.593Z,65.00
2019-05-23T20:04:38.213Z,66.50
2019-05-23T20:07:08.119Z,64.50
2019-05-23T20:09:37.791Z,63.90
2019-05-23T20:12:09.068Z,62.60
2019-05-23T20:14:40.644Z,66.20
2019-05-23T20:17:10.022Z,66.70
2019-05-23T20:19:39.710Z,71.00
2019-05-23T20:22:09.441Z,69.60
2019-05-23T20:24:39.153Z,69.80
2019-05-23T20:27:08.872Z,70.00
2019-05-23T20:29:40.266Z,70.70
2019-05-23T20:32:09.920Z,71.50
2019-05-23T20:34:39.603Z,73.10
2019-05-23T20:37:09.343Z,73.80
2019-05-23T20:39:40.976Z,73.40
2019-05-23T20:42:12.053Z,72.70
2019-05-23T20:44:41.619Z,74.30
2019-05-23T20:47:11.766Z,72.80
2019-05-23T20:49:41.576Z,72.30
2019-05-23T20:52:11.261Z,73.60
2019-05-23T20:54:40.998Z,72.60
2019-05-23T20:57:11.191Z,73.80
2019-05-23T20:59:41.005Z,74.60
2019-05-23T21:02:11.070Z,76.10
2019-05-23T21:04:40.760Z,76.70
2019-05-23T21:07:12.935Z,76.10
2019-05-23T21:09:42.022Z,75.10
2019-05-23T21:12:28.316Z,77.00
2019-05-23T21:14:43.863Z,78.00
2019-05-23T21:17:13.610Z,78.40
2019-05-23T21:19:44.298Z,78.40
2019-05-23T21:22:14.057Z,77.60
2019-05-23T21:24:44.739Z,76.50
2019-05-23T21:27:14.471Z,76.00
2019-05-23T21:29:44.107Z,72.80
2019-05-23T21:32:14.841Z,71.10
2019-05-23T21:34:45.474Z,70.80
2019-05-23T21:37:15.182Z,71.50
2019-05-23T21:39:44.897Z,71.20
2019-05-23T21:42:14.718Z,73.20
2019-05-23T21:44:44.315Z,73.10
2019-05-23T21:47:14.228Z,73.10
2019-05-23T21:49:44.916Z,72.70
2019-05-23T21:52:14.950Z,72.40
2019-05-23T21:54:44.690Z,71.50
2019-05-23T21:57:16.201Z,71.00
2019-05-23T21:59:45.646Z,71.80
2019-05-23T22:02:22.524Z,71.80
2019-05-23T22:04:53.771Z,71.90
2019-05-23T22:07:23.480Z,72.00
2019-05-23T22:09:54.880Z,71.50
2019-05-23T22:12:24.511Z,70.20
2019-05-23T22:14:54.631Z,70.60
2019-05-23T22:17:25.878Z,70.70
2019-05-23T22:19:55.586Z,70.70
2019-05-23T22:22:25.430Z,71.60
2019-05-23T22:24:55.343Z,72.00
2019-05-23T22:27:25.231Z,72.80
2019-05-23T22:29:54.951Z,72.60
2019-05-23T22:32:26.126Z,73.60
2019-05-23T22:34:57.460Z,74.00
2019-05-23T22:37:27.147Z,74.00
2019-05-23T22:39:56.880Z,74.60
2019-05-23T22:42:28.640Z,74.30
2019-05-23T22:44:58.138Z,75.00
2019-05-23T22:47:27.854Z,76.00
2019-05-23T22:49:57.535Z,75.30
2019-05-23T22:52:27.276Z,76.10
2019-05-23T22:54:56.984Z,74.90
2019-05-23T22:57:26.695Z,74.30
2019-05-23T22:59:56.374Z,74.90
2019-05-23T23:02:26.220Z,75.50
2019-05-23T23:04:56.957Z,76.70
2019-05-23T23:07:28.476Z,76.80
2019-05-23T23:09:58.290Z,76.30
2019-05-23T23:12:28.005Z,77.40
2019-05-23T23:14:57.715Z,78.40
2019-05-23T23:17:28.526Z,77.80
2019-05-23T23:19:59.279Z,77.70
2019-05-23T23:22:28.995Z,77.20
2019-05-23T23:24:58.699Z,76.80
2019-05-23T23:27:28.437Z,75.80
2019-05-23T23:29:58.018Z,76.50
2019-05-23T23:32:27.727Z,77.10
2019-05-23T23:34:59.243Z,78.30
2019-05-23T23:37:28.713Z,79.10
2019-05-23T23:39:58.291Z,79.40
2019-05-23T23:42:28.029Z,80.00
2019-05-23T23:45:15.457Z,80.40
2019-05-23T23:48:02.963Z,81.60
2019-05-23T23:50:50.920Z,82.70
2019-05-23T23:53:38.448Z,83.00
2019-05-23T23:56:26.186Z,82.80
2019-05-23T23:58:55.072Z,82.00
